createdAt,value
2022-11-30T00:00:14.195Z,3.63
2022-11-30T00:05:15.884Z,3.55
2022-11-30T00:10:17.669Z,4.25
2022-11-30T00:15:19.069Z,4.10
2022-11-30T00:20:20.528Z,3.58
2022-11-30T00:25:22.376Z,3.90
2022-11-30T00:30:23.824Z,4.63
2022-11-30T00:35:25.318Z,5.07
2022-11-30T00:40:26.801Z,3.67
2022-11-30T00:45:28.204Z,6.68
2022-11-30T00:50:29.708Z,4.45
2022-11-30T00:55:31.176Z,4.63
2022-11-30T01:00:33.204Z,4.55
2022-11-30T01:05:35.566Z,5.13
2022-11-30T01:10:39.413Z,4.20
2022-11-30T01:15:43.710Z,3.35
2022-11-30T01:20:45.300Z,3.83
2022-11-30T01:25:55.262Z,3.45
2022-11-30T01:31:01.986Z,3.83
2022-11-30T01:36:11.664Z,3.63
2022-11-30T01:41:17.174Z,4.35
2022-11-30T01:46:21.219Z,3.75
2022-11-30T01:51:22.756Z,3.75
2022-11-30T01:56:24.249Z,4.47
2022-11-30T02:01:25.844Z,4.25
2022-11-30T02:06:27.649Z,3.45
2022-11-30T02:11:29.293Z,4.05
2022-11-30T02:16:44.711Z,4.15
2022-11-30T02:22:06.800Z,4.32
2022-11-30T02:27:35.413Z,3.47
2022-11-30T02:32:46.131Z,4.53
2022-11-30T02:37:48.697Z,4.25
2022-11-30T02:42:53.056Z,4.25
2022-11-30T02:48:10.557Z,5.38
2022-11-30T02:53:12.499Z,4.47
2022-11-30T02:58:15.866Z,5.07
2022-11-30T03:03:17.347Z,5.05
2022-11-30T03:08:18.805Z,5.22
2022-11-30T03:13:20.233Z,4.10
2022-11-30T03:18:21.691Z,3.88
2022-11-30T03:23:23.093Z,4.18
2022-11-30T03:28:25.594Z,4.75
2022-11-30T03:33:27.088Z,5.05
2022-11-30T03:38:29.016Z,5.15
2022-11-30T03:43:30.706Z,5.80
2022-11-30T03:48:32.236Z,5.30
2022-11-30T03:53:34.141Z,5.10
2022-11-30T03:58:36.556Z,5.75
2022-11-30T04:03:38.706Z,5.85
2022-11-30T04:08:40.896Z,6.20
2022-11-30T04:13:43.065Z,7.28
2022-11-30T04:18:44.545Z,5.70
2022-11-30T04:23:45.980Z,7.90
2022-11-30T04:28:47.431Z,7.88
2022-11-30T04:33:53.115Z,8.55
2022-11-30T04:38:54.590Z,9.55
2022-11-30T04:43:56.065Z,10.23
2022-11-30T04:48:57.468Z,16.40
2022-11-30T04:53:58.873Z,15.05
2022-11-30T04:59:01.809Z,16.70
2022-11-30T05:04:03.316Z,17.30
2022-11-30T05:09:04.798Z,19.33
2022-11-30T05:14:06.334Z,20.00
2022-11-30T05:19:07.899Z,17.23
2022-11-30T05:24:10.049Z,19.63
2022-11-30T05:29:11.511Z,21.05
2022-11-30T05:34:13.078Z,17.90
2022-11-30T05:39:14.542Z,18.88
2022-11-30T05:44:16.016Z,21.17
2022-11-30T05:49:17.513Z,22.42
2022-11-30T05:54:19.038Z,18.50
2022-11-30T05:59:20.516Z,21.73
2022-11-30T06:04:22.025Z,20.63
2022-11-30T06:09:23.645Z,22.33
2022-11-30T06:14:25.103Z,20.25
2022-11-30T06:19:26.581Z,21.00
2022-11-30T06:24:27.998Z,20.13
2022-11-30T06:29:29.524Z,23.38
2022-11-30T06:34:31.553Z,25.00
2022-11-30T06:40:04.229Z,22.92
2022-11-30T06:44:54.417Z,20.75
2022-11-30T06:49:55.887Z,21.77
2022-11-30T06:54:57.388Z,18.92
2022-11-30T06:59:58.846Z,21.85
2022-11-30T07:05:00.302Z,19.45
2022-11-30T07:10:01.807Z,18.73
2022-11-30T07:15:04.388Z,25.13
2022-11-30T07:20:06.604Z,24.10
2022-11-30T07:25:09.543Z,24.48
2022-11-30T07:30:11.607Z,21.60
2022-11-30T07:35:13.058Z,27.00
2022-11-30T07:40:14.536Z,25.65
2022-11-30T07:45:16.092Z,24.08
2022-11-30T07:50:17.529Z,21.38
2022-11-30T07:55:18.921Z,23.58
2022-11-30T08:00:20.474Z,21.63
2022-11-30T08:05:22.023Z,27.50
2022-11-30T08:10:24.341Z,23.80
2022-11-30T08:15:32.074Z,24.65
2022-11-30T08:20:34.509Z,18.17
2022-11-30T08:25:35.952Z,19.38
2022-11-30T08:30:37.503Z,20.52
2022-11-30T08:35:38.928Z,18.85
2022-11-30T08:40:40.338Z,24.83
2022-11-30T08:45:41.774Z,18.90
2022-11-30T08:50:43.203Z,22.40
2022-11-30T08:55:54.386Z,18.00
2022-11-30T09:00:55.869Z,16.67
2022-11-30T09:06:07.163Z,17.48
2022-11-30T09:11:13.711Z,20.90
2022-11-30T09:16:17.689Z,18.40
2022-11-30T09:21:22.301Z,18.33
2022-11-30T09:26:23.821Z,18.60
2022-11-30T09:31:26.619Z,10.98
2022-11-30T09:36:28.239Z,14.10
2022-11-30T09:42:05.007Z,14.55
2022-11-30T09:47:32.491Z,16.33
2022-11-30T09:52:39.870Z,11.95
2022-11-30T09:57:41.225Z,12.32
2022-11-30T10:02:43.462Z,14.55
2022-11-30T10:08:13.086Z,13.93
2022-11-30T10:13:26.285Z,14.07
2022-11-30T10:18:47.281Z,10.88
2022-11-30T10:24:04.290Z,11.20
2022-11-30T10:29:17.382Z,10.63
2022-11-30T10:34:25.662Z,13.13
2022-11-30T10:39:32.636Z,11.95
2022-11-30T10:44:38.160Z,10.73
2022-11-30T10:49:48.542Z,11.25
2022-11-30T10:54:56.863Z,12.20
2022-11-30T11:00:04.299Z,12.48
2022-11-30T11:05:23.567Z,13.05
2022-11-30T11:10:43.752Z,13.73
2022-11-30T11:15:58.503Z,11.38
2022-11-30T11:21:16.561Z,12.43
2022-11-30T11:26:26.427Z,15.35
2022-11-30T11:31:45.529Z,15.55
2022-11-30T11:36:46.990Z,15.03
2022-11-30T11:41:48.570Z,16.60
2022-11-30T11:47:02.335Z,12.43
2022-11-30T11:52:14.099Z,12.88
2022-11-30T11:57:19.704Z,11.95
2022-11-30T12:02:48.805Z,12.40
2022-11-30T12:08:05.540Z,12.40
2022-11-30T12:13:17.160Z,12.50
2022-11-30T12:18:38.876Z,8.95
2022-11-30T12:24:24.613Z,13.05
2022-11-30T12:29:45.553Z,11.23
2022-11-30T12:35:16.356Z,10.98
2022-11-30T12:40:30.467Z,15.35
2022-11-30T12:45:38.818Z,11.38
2022-11-30T12:50:52.310Z,11.55
2022-11-30T12:56:03.024Z,10.93
2022-11-30T13:01:27.337Z,10.88
2022-11-30T13:06:42.632Z,11.05
2022-11-30T13:11:51.627Z,11.45
2022-11-30T13:17:05.319Z,9.05
2022-11-30T13:22:21.062Z,10.93
2022-11-30T13:27:28.812Z,11.50
2022-11-30T13:32:57.353Z,10.45
2022-11-30T13:38:40.015Z,8.43
2022-11-30T13:43:47.871Z,11.30
2022-11-30T13:49:08.819Z,11.80
2022-11-30T13:54:38.217Z,12.02
2022-11-30T13:59:46.640Z,11.13
2022-11-30T14:04:48.469Z,11.50
2022-11-30T14:09:58.622Z,11.43
2022-11-30T14:15:01.797Z,12.43
2022-11-30T14:20:16.817Z,13.02
2022-11-30T14:25:20.662Z,10.57
2022-11-30T14:30:23.746Z,11.10
2022-11-30T14:35:30.066Z,11.90
2022-11-30T14:40:31.564Z,12.50
2022-11-30T14:45:34.245Z,12.15
2022-11-30T14:50:36.900Z,11.20
2022-11-30T14:56:01.678Z,10.52
2022-11-30T15:01:17.026Z,10.27
2022-11-30T15:06:20.804Z,10.02
2022-11-30T15:11:23.164Z,11.43
2022-11-30T15:21:46.267Z,13.48
2022-11-30T15:26:54.780Z,13.18
2022-11-30T15:31:59.155Z,12.00
2022-11-30T15:37:00.847Z,12.35
2022-11-30T15:42:04.917Z,10.48
2022-11-30T15:47:23.216Z,15.85
2022-11-30T15:52:29.198Z,16.02
2022-11-30T15:57:58.107Z,16.17
2022-11-30T16:03:13.132Z,16.13
2022-11-30T16:08:17.756Z,14.38
2022-11-30T16:13:21.316Z,15.43
2022-11-30T16:18:24.782Z,15.90
2022-11-30T16:23:27.700Z,16.35
2022-11-30T16:28:29.189Z,13.00
2022-11-30T16:33:30.703Z,14.05
2022-11-30T16:38:32.635Z,16.73
2022-11-30T16:43:34.024Z,20.33
2022-11-30T16:48:35.476Z,16.77
2022-11-30T16:53:36.932Z,18.35
2022-11-30T16:58:38.464Z,20.17
2022-11-30T17:03:40.138Z,15.35
2022-11-30T17:08:41.539Z,14.05
2022-11-30T17:13:43.010Z,13.07
2022-11-30T17:18:44.494Z,15.07
2022-11-30T17:23:46.037Z,16.05
2022-11-30T17:28:47.737Z,12.52
2022-11-30T17:33:49.214Z,12.82
2022-11-30T17:38:50.673Z,12.35
2022-11-30T17:43:52.252Z,15.23
2022-11-30T17:48:55.120Z,13.75
2022-11-30T17:53:57.158Z,15.13
2022-11-30T17:58:59.834Z,15.05
2022-11-30T18:04:01.517Z,12.98
2022-11-30T18:09:03.031Z,18.27
2022-11-30T18:14:04.640Z,16.00
2022-11-30T18:19:06.355Z,16.15
2022-11-30T18:24:08.165Z,17.30
2022-11-30T18:29:10.658Z,17.98
2022-11-30T18:34:12.083Z,20.17
2022-11-30T18:39:13.641Z,17.50
2022-11-30T18:44:15.121Z,17.48
2022-11-30T18:49:16.997Z,16.98
2022-11-30T18:54:18.458Z,19.27
2022-11-30T18:59:19.956Z,16.55
2022-11-30T19:04:24.861Z,20.30
2022-11-30T19:09:26.279Z,21.00
2022-11-30T19:14:27.755Z,16.25
2022-11-30T19:19:29.228Z,16.23
2022-11-30T19:24:30.773Z,18.50
2022-11-30T19:29:32.223Z,18.48
2022-11-30T19:34:33.714Z,16.50
2022-11-30T19:39:35.204Z,15.73
2022-11-30T19:44:36.650Z,15.55
2022-11-30T19:49:38.056Z,13.23
2022-11-30T19:54:39.476Z,15.93
2022-11-30T19:59:40.930Z,16.48
2022-11-30T20:04:42.365Z,17.33
2022-11-30T20:09:43.789Z,17.77
2022-11-30T20:14:45.552Z,17.15
2022-11-30T20:19:47.117Z,17.30
2022-11-30T20:24:48.744Z,18.75
2022-11-30T20:29:51.466Z,20.83
2022-11-30T20:38:51.429Z,17.88
2022-11-30T20:43:53.399Z,18.73
2022-11-30T20:48:56.364Z,17.17
2022-11-30T20:53:59.596Z,21.60
2022-11-30T20:59:02.489Z,16.75
2022-11-30T21:04:04.142Z,18.63
2022-11-30T21:09:05.703Z,17.95
2022-11-30T21:14:07.915Z,16.90
2022-11-30T21:19:10.091Z,18.08
2022-11-30T21:24:12.181Z,21.88
2022-11-30T21:29:17.501Z,19.55
2022-11-30T21:34:18.912Z,20.52
2022-11-30T21:39:20.369Z,21.48
2022-11-30T21:44:21.883Z,19.23
2022-11-30T21:49:23.358Z,19.60
2022-11-30T21:54:24.838Z,16.27
2022-11-30T21:59:26.282Z,17.52
2022-11-30T22:04:27.823Z,18.48
2022-11-30T22:09:29.365Z,17.05
2022-11-30T22:14:30.873Z,17.20
2022-11-30T22:19:32.360Z,17.73
2022-11-30T22:24:33.756Z,19.42
2022-11-30T22:29:35.207Z,16.50
2022-11-30T22:34:36.684Z,18.33
2022-11-30T22:39:38.117Z,19.42
2022-11-30T22:44:39.576Z,18.02
2022-11-30T22:49:41.119Z,19.80
2022-11-30T22:54:42.707Z,18.02
2022-11-30T22:59:44.179Z,17.75
2022-11-30T23:04:45.675Z,20.65
2022-11-30T23:09:47.343Z,19.80
2022-11-30T23:14:48.889Z,18.73
2022-11-30T23:19:50.546Z,21.38
2022-11-30T23:24:52.086Z,17.75
2022-11-30T23:29:53.557Z,18.90
2022-11-30T23:34:54.949Z,20.95
2022-11-30T23:39:56.405Z,21.73
2022-11-30T23:44:57.942Z,21.17
2022-11-30T23:49:59.443Z,16.75
2022-11-30T23:55:00.985Z,20.88
